Time;durP1;ratioP1;P1;durP2;ratioP2;P2;SDS_P1;SDS_P2;PMS_P1;PMS_P2;Temp;Humidity;BMP_temperature;BMP_pressure;BME280_temperature;BME280_humidity;BME280_pressure;Samples;Min_cycle;Max_cycle;Signal;HPM_P1;HPM_P2
2021/06/22 00:00:35;;;;;;;9.55;3.78;;;20.70;99.90;;;;;;5067418;28;20052;-68
2021/06/22 00:03:03;;;;;;;6.28;3.72;;;20.70;99.90;;;;;;5081174;28;20119;-68
2021/06/22 00:05:35;;;;;;;7.18;3.92;;;20.60;99.90;;;;;;5068165;28;20052;-68
2021/06/22 00:08:04;;;;;;;5.97;3.65;;;20.60;99.90;;;;;;5067867;28;20520;-70
2021/06/22 00:10:32;;;;;;;7.57;3.70;;;20.60;99.90;;;;;;5057538;28;20499;-69
2021/06/22 00:13:00;;;;;;;8.93;3.58;;;20.50;99.90;;;;;;5063018;28;20044;-69
2021/06/22 00:15:30;;;;;;;6.40;4.05;;;20.40;99.90;;;;;;5071325;28;20095;-69
2021/06/22 00:17:57;;;;;;;6.30;3.53;;;20.20;99.90;;;;;;5062831;28;20102;-69
2021/06/22 00:20:25;;;;;;;9.18;4.90;;;20.20;99.90;;;;;;5071834;28;20048;-69
2021/06/22 00:22:54;;;;;;;8.05;4.30;;;20.10;99.90;;;;;;5062995;28;20128;-69
2021/06/22 00:25:23;;;;;;;7.15;4.22;;;20.00;99.90;;;;;;5066042;28;20053;-69
2021/06/22 00:27:51;;;;;;;6.47;3.90;;;19.90;99.90;;;;;;5068965;28;20072;-69
2021/06/22 00:30:20;;;;;;;8.35;4.85;;;19.90;99.90;;;;;;5063555;28;20368;-69
2021/06/22 00:32:48;;;;;;;9.98;4.90;;;19.90;99.90;;;;;;5067304;28;20048;-69
2021/06/22 00:35:17;;;;;;;7.05;5.20;;;19.80;99.90;;;;;;5063520;28;20157;-69
2021/06/22 00:37:45;;;;;;;8.02;5.05;;;19.80;99.90;;;;;;5067759;28;20051;-69
2021/06/22 00:40:14;;;;;;;8.25;6.03;;;19.70;99.90;;;;;;5068268;28;20052;-69
2021/06/22 00:42:44;;;;;;;10.95;6.93;;;19.70;99.90;;;;;;5065597;28;20044;-68
2021/06/22 00:45:16;;;;;;;9.55;5.88;;;19.70;99.90;;;;;;5067361;28;20059;-69
2021/06/22 00:47:44;;;;;;;8.57;5.80;;;19.60;99.90;;;;;;5066119;28;20128;-68
2021/06/22 00:50:11;;;;;;;6.82;5.88;;;19.50;99.90;;;;;;5057499;28;20044;-69
2021/06/22 00:52:49;;;;;;;11.05;5.97;;;19.50;99.90;;;;;;5067057;28;20084;-69
2021/06/22 00:55:29;;;;;;;10.63;6.28;;;19.40;99.90;;;;;;5057352;28;20538;-69
2021/06/22 00:58:17;;;;;;;7.50;5.18;;;19.30;99.90;;;;;;5080002;28;20052;-69
2021/06/22 01:00:46;;;;;;;7.07;5.43;;;19.10;99.90;;;;;;5068228;28;20136;-69
2021/06/22 01:03:13;;;;;;;9.20;5.60;;;19.10;99.90;;;;;;5064228;28;20491;-69
2021/06/22 01:05:45;;;;;;;;;;;19.00;99.90;;;;;;5067316;28;20052;-69
2021/06/22 01:08:13;;;;;;;12.45;6.30;;;19.00;99.90;;;;;;5065118;28;20367;-69
2021/06/22 01:10:42;;;;;;;8.95;6.13;;;18.90;99.90;;;;;;5064038;28;20045;-69
2021/06/22 01:13:10;;;;;;;8.45;6.82;;;18.90;99.90;;;;;;5057339;28;20064;-69
2021/06/22 01:15:39;;;;;;;10.15;6.20;;;19.00;99.90;;;;;;5078979;28;20514;-69
2021/06/22 01:18:08;;;;;;;8.40;6.20;;;18.90;99.90;;;;;;5070171;28;20189;-69
2021/06/22 01:20:58;;;;;;;8.35;6.47;;;19.00;99.90;;;;;;5066985;28;20049;-68
2021/06/22 01:23:34;;;;;;;8.45;6.03;;;18.90;99.90;;;;;;5059952;28;20083;-68
2021/06/22 01:26:02;;;;;;;9.93;6.30;;;18.90;99.90;;;;;;5074282;28;20068;-68
2021/06/22 01:28:33;;;;;;;8.50;5.53;;;18.90;99.90;;;;;;5051417;28;20067;-69
2021/06/22 01:31:12;;;;;;;10.25;5.82;;;18.90;99.90;;;;;;5076996;28;20836;-69
2021/06/22 01:33:46;;;;;;;8.67;5.67;;;18.90;99.90;;;;;;5063687;28;20056;-69
2021/06/22 01:36:21;;;;;;;8.90;5.68;;;18.90;99.90;;;;;;5086517;28;20048;-69
2021/06/22 01:38:49;;;;;;;9.68;6.93;;;18.90;99.90;;;;;;5070426;28;20522;-69
2021/06/22 01:41:18;;;;;;;11.05;6.72;;;18.80;99.90;;;;;;5069471;28;20113;-69
2021/06/22 01:43:48;;;;;;;8.68;6.45;;;18.80;99.90;;;;;;5060636;28;20055;-69
2021/06/22 01:46:17;;;;;;;9.18;5.72;;;18.80;99.90;;;;;;5070973;28;20469;-69
2021/06/22 01:48:45;;;;;;;10.10;6.85;;;18.70;99.90;;;;;;5071793;28;20040;-69
2021/06/22 01:51:13;;;;;;;7.97;5.32;;;18.70;99.90;;;;;;5070872;28;20037;-69
2021/06/22 01:53:49;;;;;;;8.85;6.82;;;18.70;99.90;;;;;;5072038;28;20418;-69
2021/06/22 01:56:17;;;;;;;9.32;6.07;;;18.60;99.90;;;;;;5070361;28;20040;-69
2021/06/22 01:58:47;;;;;;;8.65;6.32;;;18.60;99.90;;;;;;5053847;28;20103;-69
2021/06/22 02:01:33;;;;;;;7.47;5.68;;;18.60;99.90;;;;;;5053875;28;20444;-69
2021/06/22 02:04:13;;;;;;;7.28;5.70;;;18.60;99.90;;;;;;5065406;28;20580;-68
2021/06/22 02:06:40;;;;;;;7.20;6.10;;;18.60;99.90;;;;;;5072111;28;20087;-69
2021/06/22 02:09:40;;;;;;;7.70;6.05;;;18.60;99.90;;;;;;5031936;28;20605;-69
2021/06/22 02:12:13;;;;;;;7.72;5.88;;;18.60;99.90;;;;;;5003736;28;20157;-69
2021/06/22 02:14:41;;;;;;;6.90;5.68;;;18.60;99.90;;;;;;5004533;28;20053;-68
2021/06/22 02:17:09;;;;;;;8.90;6.00;;;18.60;99.90;;;;;;5013871;28;20061;-68
2021/06/22 02:19:36;;;;;;;7.60;6.70;;;18.60;99.90;;;;;;5016416;28;20061;-68
2021/06/22 02:22:11;;;;;;;9.10;6.25;;;18.50;99.90;;;;;;4999141;28;20538;-68
2021/06/22 02:24:52;;;;;;;7.85;6.03;;;18.50;99.90;;;;;;5014167;28;20073;-69
2021/06/22 02:27:27;;;;;;;8.18;6.20;;;18.50;99.90;;;;;;5012223;28;20508;-68
2021/06/22 02:29:58;;;;;;;10.68;7.78;;;18.50;99.90;;;;;;5029007;28;20552;-69
2021/06/22 02:32:28;;;;;;;9.98;6.43;;;18.50;99.90;;;;;;5002330;28;20072;-69
2021/06/22 02:35:06;;;;;;;9.30;7.72;;;18.40;99.90;;;;;;5031527;28;20960;-68
2021/06/22 02:37:34;;;;;;;16.45;10.38;;;18.40;99.90;;;;;;5007349;28;20060;-69
2021/06/22 02:40:03;;;;;;;10.90;7.40;;;18.30;99.90;;;;;;5013324;28;20056;-68
2021/06/22 02:42:31;;;;;;;9.65;6.50;;;18.30;99.90;;;;;;5012662;28;20413;-69
2021/06/22 02:45:06;;;;;;;11.70;7.53;;;18.20;99.90;;;;;;5036856;28;20102;-68
2021/06/22 02:47:34;;;;;;;7.68;5.90;;;18.20;99.90;;;;;;5073148;28;20048;-69
2021/06/22 02:50:04;;;;;;;7.25;5.85;;;18.20;99.90;;;;;;5074243;28;20483;-69
2021/06/22 02:52:33;;;;;;;10.50;7.05;;;18.10;99.90;;;;;;5051280;28;20554;-69
2021/06/22 02:55:02;;;;;;;9.30;7.68;;;18.10;99.90;;;;;;5071368;28;20068;-69
2021/06/22 02:57:30;;;;;;;10.00;7.45;;;18.10;99.90;;;;;;5055318;28;20044;-69
2021/06/22 02:59:59;;;;;;;10.93;6.90;;;18.10;99.90;;;;;;5071018;28;20057;-69
2021/06/22 03:02:28;;;;;;;10.25;7.75;;;18.10;99.90;;;;;;5070734;28;20114;-69
2021/06/22 03:04:56;;;;;;;9.75;8.02;;;18.10;99.90;;;;;;5070666;28;20055;-68
2021/06/22 03:07:24;;;;;;;11.73;7.78;;;18.10;99.90;;;;;;5062817;28;20533;-68
2021/06/22 03:09:51;;;;;;;9.10;7.00;;;18.00;99.90;;;;;;5071026;28;20056;-69
2021/06/22 03:12:20;;;;;;;8.38;6.50;;;18.00;99.90;;;;;;5070014;28;20041;-69
2021/06/22 03:15:11;;;;;;;8.68;7.07;;;18.00;99.90;;;;;;5072267;28;21296;-69
2021/06/22 03:17:39;;;;;;;9.38;7.63;;;17.90;99.90;;;;;;5070627;28;20127;-69
2021/06/22 03:20:09;;;;;;;9.65;7.68;;;17.90;99.90;;;;;;5073464;28;20049;-68
2021/06/22 03:22:37;;;;;;;13.18;8.77;;;17.90;99.90;;;;;;5071501;28;20070;-69
2021/06/22 03:25:07;;;;;;;13.10;9.10;;;17.90;99.90;;;;;;5052765;28;20130;-69
2021/06/22 03:27:34;;;;;;;10.88;8.23;;;17.90;99.90;;;;;;5064150;28;20960;-69
2021/06/22 03:30:22;;;;;;;11.63;8.55;;;17.90;99.90;;;;;;5065854;28;20044;-69
2021/06/22 03:32:49;;;;;;;10.02;7.93;;;17.90;99.90;;;;;;5072215;28;20052;-69
2021/06/22 03:35:16;;;;;;;11.57;8.90;;;17.90;99.90;;;;;;5069248;28;20045;-69
2021/06/22 03:37:44;;;;;;;11.50;8.40;;;17.90;99.90;;;;;;5062253;28;20491;-69
2021/06/22 03:40:13;;;;;;;12.23;8.75;;;17.90;99.90;;;;;;5061946;28;20051;-69
2021/06/22 03:42:45;;;;;;;10.73;8.70;;;17.90;99.90;;;;;;5065023;28;20051;-69
2021/06/22 03:45:13;;;;;;;11.43;9.48;;;17.80;99.90;;;;;;5060427;28;20399;-69
2021/06/22 03:47:43;;;;;;;10.95;8.40;;;17.80;99.90;;;;;;5056441;28;20088;-68
2021/06/22 03:50:13;;;;;;;13.02;9.52;;;17.80;99.90;;;;;;5068528;28;20052;-68
2021/06/22 03:52:40;;;;;;;11.25;9.05;;;17.90;99.90;;;;;;5068448;28;20410;-69
2021/06/22 03:55:29;;;;;;;11.10;8.90;;;17.90;99.90;;;;;;5064034;28;20052;-69
2021/06/22 03:58:07;;;;;;;10.75;8.18;;;17.80;99.90;;;;;;5077766;28;20052;-69
2021/06/22 04:00:48;;;;;;;10.88;8.13;;;17.80;99.90;;;;;;5064390;28;20048;-69
2021/06/22 04:03:18;;;;;;;10.30;8.60;;;17.80;99.90;;;;;;5064849;28;20593;-70
2021/06/22 04:05:54;;;;;;;11.57;9.10;;;17.90;99.90;;;;;;5063037;28;20049;-69
2021/06/22 04:08:25;;;;;;;9.77;8.05;;;17.90;99.90;;;;;;5067958;28;20079;-70
2021/06/22 04:10:58;;;;;;;13.48;8.70;;;17.90;99.90;;;;;;5085347;28;20040;-69
2021/06/22 04:13:27;;;;;;;11.85;9.05;;;18.00;99.90;;;;;;5050695;28;20052;-68
2021/06/22 04:15:57;;;;;;;11.93;8.02;;;18.10;99.90;;;;;;5071167;28;20048;-68
2021/06/22 04:18:24;;;;;;;10.07;8.38;;;18.10;99.90;;;;;;5071264;28;20048;-68
2021/06/22 04:20:55;;;;;;;11.25;8.50;;;18.10;99.90;;;;;;5069901;28;20067;-68
2021/06/22 04:23:27;;;;;;;9.20;7.65;;;18.10;99.90;;;;;;5070090;28;20600;-69
2021/06/22 04:25:55;;;;;;;14.82;12.95;;;18.20;99.90;;;;;;5060740;28;20033;-69
2021/06/22 04:28:22;;;;;;;14.02;9.40;;;18.20;99.90;;;;;;5057159;28;20410;-69
2021/06/22 04:30:50;;;;;;;10.68;8.82;;;18.30;99.90;;;;;;5078247;28;20040;-68
2021/06/22 04:33:17;;;;;;;14.60;10.73;;;18.30;99.90;;;;;;5071281;28;20044;-68
2021/06/22 04:35:44;;;;;;;16.45;10.82;;;18.40;99.90;;;;;;5065112;28;20048;-69
2021/06/22 04:38:12;;;;;;;12.95;10.07;;;18.40;99.90;;;;;;5066917;28;20055;-69
2021/06/22 04:40:40;;;;;;;14.20;9.80;;;18.40;99.90;;;;;;5070474;28;20063;-68
2021/06/22 04:43:08;;;;;;;14.05;10.23;;;18.40;99.90;;;;;;5066731;28;20052;-69
2021/06/22 04:45:35;;;;;;;9.48;8.30;;;18.40;99.90;;;;;;5051193;28;20114;-69
2021/06/22 04:48:04;;;;;;;14.43;11.05;;;18.50;99.90;;;;;;5056691;28;20399;-68
2021/06/22 04:50:32;;;;;;;12.75;9.70;;;18.60;99.90;;;;;;5068101;28;20052;-68
2021/06/22 04:52:59;;;;;;;11.43;9.95;;;18.70;99.90;;;;;;5069943;28;20041;-69
2021/06/22 04:55:27;;;;;;;13.63;11.40;;;18.70;99.90;;;;;;5067894;28;20057;-69
2021/06/22 04:57:59;;;;;;;13.35;10.43;;;18.70;99.90;;;;;;5049010;28;20162;-68
2021/06/22 05:00:28;;;;;;;12.27;10.35;;;18.80;99.90;;;;;;5069698;28;20403;-68
2021/06/22 05:02:56;;;;;;;12.75;8.95;;;18.90;99.90;;;;;;5058944;28;20132;-68
2021/06/22 05:05:25;;;;;;;11.60;9.43;;;18.80;99.90;;;;;;5058301;28;20576;-68
2021/06/22 05:07:53;;;;;;;15.13;9.55;;;18.80;99.90;;;;;;5063834;28;20091;-68
2021/06/22 05:10:20;;;;;;;13.18;10.65;;;18.80;99.90;;;;;;5070581;28;20098;-68
2021/06/22 05:12:48;;;;;;;16.58;10.40;;;18.80;99.90;;;;;;5064925;28;20569;-69
2021/06/22 05:15:19;;;;;;;13.82;10.00;;;18.80;99.90;;;;;;5052562;28;20056;-69
2021/06/22 05:17:48;;;;;;;15.73;10.27;;;18.80;99.90;;;;;;5064423;28;20052;-69
2021/06/22 05:20:15;;;;;;;13.98;11.63;;;18.70;99.90;;;;;;5069227;28;20080;-68
2021/06/22 05:22:43;;;;;;;26.30;18.05;;;18.80;99.90;;;;;;5064168;28;20113;-69
2021/06/22 05:25:10;;;;;;;14.68;11.48;;;18.80;99.90;;;;;;5064677;28;20048;-68
2021/06/22 05:27:38;;;;;;;11.85;10.35;;;18.80;99.90;;;;;;5067984;28;20056;-66
2021/06/22 05:30:05;;;;;;;13.52;11.18;;;18.80;99.90;;;;;;5064172;28;20052;-67
2021/06/22 05:32:36;;;;;;;13.30;11.02;;;18.90;99.90;;;;;;5067859;28;20045;-68
2021/06/22 05:35:04;;;;;;;13.82;11.57;;;18.90;99.90;;;;;;5063556;28;20122;-68
2021/06/22 05:37:31;;;;;;;15.00;11.73;;;18.90;99.90;;;;;;5051968;28;20107;-69
2021/06/22 05:39:58;;;;;;;16.77;11.40;;;19.00;99.90;;;;;;5064456;28;20044;-69
2021/06/22 05:42:26;;;;;;;13.18;11.45;;;19.00;99.90;;;;;;5063463;28;20496;-69
2021/06/22 05:44:53;;;;;;;12.90;10.48;;;19.20;99.90;;;;;;5065617;28;20400;-69
2021/06/22 05:47:20;;;;;;;12.27;10.73;;;19.30;99.90;;;;;;5064197;28;20136;-69
2021/06/22 05:49:48;;;;;;;15.07;11.60;;;19.30;99.90;;;;;;5060490;28;20083;-69
2021/06/22 05:52:15;;;;;;;15.07;11.90;;;19.30;99.90;;;;;;5034879;28;20045;-69
2021/06/22 05:54:44;;;;;;;17.20;12.55;;;19.30;99.90;;;;;;5054336;28;20052;-69
2021/06/22 05:57:11;;;;;;;13.77;12.32;;;19.30;99.90;;;;;;5057693;28;20053;-68
2021/06/22 05:59:38;;;;;;;14.93;12.18;;;19.40;99.90;;;;;;5055652;28;20098;-68
2021/06/22 06:02:07;;;;;;;14.30;11.80;;;19.60;99.90;;;;;;5060147;28;20048;-69
2021/06/22 06:04:34;;;;;;;14.38;11.55;;;19.80;99.90;;;;;;5058877;28;20041;-69
2021/06/22 06:07:02;;;;;;;13.02;10.70;;;19.90;99.90;;;;;;5065160;28;20056;-69
2021/06/22 06:09:29;;;;;;;13.13;11.45;;;20.00;99.90;;;;;;5069010;28;20053;-69
2021/06/22 06:11:57;;;;;;;11.82;10.45;;;20.20;99.90;;;;;;5063426;28;20499;-69
2021/06/22 06:14:25;;;;;;;16.48;11.35;;;20.40;99.90;;;;;;5077798;28;20140;-70
2021/06/22 06:16:52;;;;;;;14.27;11.82;;;20.70;99.90;;;;;;5062321;28;20688;-69
2021/06/22 06:19:19;;;;;;;14.48;12.23;;;20.80;99.90;;;;;;5068863;28;20049;-69
2021/06/22 06:21:48;;;;;;;12.27;10.68;;;20.90;99.90;;;;;;5070454;28;20485;-70
2021/06/22 06:24:15;;;;;;;13.93;11.65;;;20.90;99.90;;;;;;5066235;28;20116;-69
2021/06/22 06:26:51;;;;;;;12.73;10.38;;;21.10;99.90;;;;;;5064234;28;20041;-69
2021/06/22 06:30:05;;;;;;;15.07;10.07;;;21.30;99.90;;;;;;5068395;28;20094;-70
2021/06/22 06:32:06;;;;;;;14.07;11.63;;;21.50;99.90;;;;;;5059865;28;20463;-70
2021/06/22 06:34:34;;;;;;;20.92;15.18;;;21.70;99.90;;;;;;5068863;28;20048;-70
2021/06/22 06:37:01;;;;;;;13.75;11.65;;;21.80;99.90;;;;;;5069349;28;20113;-70
2021/06/22 06:39:31;;;;;;;18.92;11.38;;;21.90;99.90;;;;;;5086242;28;20052;-69
2021/06/22 06:41:59;;;;;;;17.25;12.15;;;22.00;99.90;;;;;;5069295;28;20079;-70
2021/06/22 06:44:26;;;;;;;12.25;10.13;;;21.70;99.90;;;;;;5057779;28;20069;-70
2021/06/22 06:46:53;;;;;;;11.10;10.00;;;21.70;99.90;;;;;;5072098;28;20053;-70
2021/06/22 06:49:21;;;;;;;13.88;10.57;;;21.80;99.90;;;;;;5068007;28;20051;-70
2021/06/22 06:51:48;;;;;;;11.85;10.10;;;21.80;99.90;;;;;;5071638;28;20063;-70
2021/06/22 06:54:15;;;;;;;13.85;11.75;;;21.90;99.90;;;;;;5067927;28;20052;-70
2021/06/22 06:56:43;;;;;;;13.95;11.88;;;21.80;99.90;;;;;;5056285;28;20392;-69
2021/06/22 06:59:10;;;;;;;16.88;11.93;;;21.80;99.90;;;;;;5057130;28;20084;-70
2021/06/22 07:01:38;;;;;;;14.43;12.55;;;21.80;99.90;;;;;;5063651;28;20131;-70
2021/06/22 07:04:05;;;;;;;14.10;11.15;;;21.80;99.90;;;;;;5070237;28;20071;-69
2021/06/22 07:06:32;;;;;;;14.40;12.90;;;21.80;99.90;;;;;;5081964;28;20115;-68
2021/06/22 07:09:00;;;;;;;13.45;12.05;;;21.80;99.90;;;;;;5059906;28;20052;-69
2021/06/22 07:11:28;;;;;;;14.18;12.68;;;21.80;99.90;;;;;;5076384;28;20037;-68
2021/06/22 07:13:56;;;;;;;15.40;13.00;;;21.80;99.90;;;;;;5060670;28;20052;-70
2021/06/22 07:16:23;;;;;;;16.45;14.25;;;21.80;99.90;;;;;;5071157;28;20076;-70
2021/06/22 07:18:51;;;;;;;18.48;16.50;;;21.80;99.90;;;;;;5070638;28;20094;-69
2021/06/22 07:21:19;;;;;;;16.80;15.00;;;21.90;99.90;;;;;;5051384;28;20041;-69
2021/06/22 07:23:47;;;;;;;14.75;13.25;;;21.90;99.90;;;;;;5056025;28;20132;-70
2021/06/22 07:26:36;;;;;;;16.23;13.55;;;22.10;99.90;;;;;;5071507;28;20070;-69
2021/06/22 07:29:04;;;;;;;15.88;13.75;;;22.30;99.90;;;;;;5069933;28;20075;-69
2021/06/22 07:31:32;;;;;;;18.02;13.52;;;22.50;99.90;;;;;;5071298;28;20147;-69
2021/06/22 07:34:00;;;;;;;16.80;14.70;;;22.60;99.90;;;;;;5070960;28;20120;-70
2021/06/22 07:36:28;;;;;;;15.65;13.93;;;22.70;99.90;;;;;;5062670;28;20071;-71
2021/06/22 07:38:55;;;;;;;15.52;13.93;;;22.80;99.90;;;;;;5070555;28;20464;-69
2021/06/22 07:41:23;;;;;;;17.13;14.75;;;22.80;99.90;;;;;;5071517;28;20044;-68
2021/06/22 07:43:50;;;;;;;20.45;18.05;;;23.00;99.90;;;;;;5068625;28;20080;-69
2021/06/22 07:46:18;;;;;;;16.80;14.98;;;23.20;99.90;;;;;;5068436;28;20450;-70
2021/06/22 07:48:47;;;;;;;16.83;15.05;;;23.50;99.90;;;;;;5054820;28;20562;-69
2021/06/22 07:51:14;;;;;;;17.25;13.73;;;23.70;99.90;;;;;;5069218;28;20045;-70
2021/06/22 07:53:41;;;;;;;14.90;13.23;;;23.90;99.90;;;;;;5059280;28;20068;-70
2021/06/22 07:56:09;;;;;;;17.65;14.00;;;23.90;99.90;;;;;;5052979;28;20102;-69
2021/06/22 07:58:36;;;;;;;15.65;12.70;;;23.90;99.90;;;;;;5062861;28;20065;-69
2021/06/22 08:01:03;;;;;;;13.93;12.43;;;24.10;99.90;;;;;;5068480;28;20105;-69
2021/06/22 08:03:31;;;;;;;14.85;13.23;;;24.10;99.90;;;;;;5047778;28;20080;-69
2021/06/22 08:05:59;;;;;;;18.77;14.30;;;24.10;99.90;;;;;;5061745;28;20117;-68
2021/06/22 08:08:26;;;;;;;18.25;16.20;;;24.00;99.90;;;;;;5057715;28;20150;-69
2021/06/22 08:10:56;;;;;;;15.20;13.70;;;24.00;99.90;;;;;;5069125;28;20127;-69
2021/06/22 08:13:24;;;;;;;19.13;16.45;;;23.90;99.90;;;;;;5069209;28;20055;-70
2021/06/22 08:15:52;;;;;;;13.38;12.07;;;23.90;99.90;;;;;;5067177;28;20047;-69
2021/06/22 08:18:20;;;;;;;14.50;13.00;;;24.00;99.90;;;;;;5065754;28;20403;-69
2021/06/22 08:20:50;;;;;;;14.18;12.63;;;23.90;99.90;;;;;;5049681;28;20044;-71
2021/06/22 08:23:18;;;;;;;16.13;12.30;;;23.90;99.90;;;;;;5051618;28;20053;-71
2021/06/22 08:25:46;;;;;;;17.63;13.45;;;23.70;99.90;;;;;;5067954;28;20051;-70
2021/06/22 08:28:14;;;;;;;15.70;12.10;;;23.70;99.90;;;;;;5055249;28;20479;-70
2021/06/22 08:30:41;;;;;;;15.25;12.57;;;23.70;99.90;;;;;;5071011;28;20049;-70
2021/06/22 08:33:11;;;;;;;15.70;11.35;;;23.70;99.90;;;;;;5075617;28;20048;-71
2021/06/22 08:35:40;;;;;;;17.55;13.05;;;23.90;99.90;;;;;;5068676;28;20083;-71
2021/06/22 08:38:09;;;;;;;15.35;12.18;;;24.00;99.90;;;;;;5062761;28;20081;-71
2021/06/22 08:40:47;;;;;;;14.35;11.75;;;24.00;99.90;;;;;;5057172;28;20053;-70
2021/06/22 08:43:17;;;;;;;14.43;12.90;;;23.80;99.90;;;;;;5036048;28;20121;-70
2021/06/22 08:45:45;;;;;;;14.32;12.35;;;23.60;99.90;;;;;;5067762;28;20127;-71
2021/06/22 08:48:14;;;;;;;15.20;11.25;;;23.50;99.90;;;;;;5062548;28;20443;-70
2021/06/22 08:50:44;;;;;;;14.15;10.80;;;23.40;99.90;;;;;;5070260;28;20041;-70
2021/06/22 08:53:14;;;;;;;12.07;9.48;;;23.30;99.90;;;;;;5059288;28;20064;-70
2021/06/22 08:55:42;;;;;;;11.95;7.82;;;23.30;99.90;;;;;;5064252;28;20071;-70
2021/06/22 08:58:15;;;;;;;12.02;8.93;;;23.40;99.90;;;;;;5067071;28;20076;-70
2021/06/22 09:00:48;;;;;;;12.48;9.48;;;23.40;99.90;;;;;;5053034;28;20400;-70
2021/06/22 09:03:17;;;;;;;12.65;9.35;;;23.50;99.90;;;;;;5069121;28;20052;-69
2021/06/22 09:05:47;;;;;;;15.43;10.02;;;23.60;99.90;;;;;;5069875;28;20048;-69
2021/06/22 09:08:20;;;;;;;11.90;8.73;;;23.90;99.90;;;;;;5083221;28;20431;-70
2021/06/22 09:10:53;;;;;;;10.60;8.50;;;24.40;99.90;;;;;;5084267;28;20037;-70
2021/06/22 09:13:24;;;;;;;12.57;11.27;;;25.00;99.90;;;;;;5069276;28;20036;-69
2021/06/22 09:15:54;;;;;;;11.43;8.88;;;25.50;99.90;;;;;;5063083;28;20060;-70
2021/06/22 09:18:30;;;;;;;11.77;8.45;;;25.90;99.90;;;;;;5071130;28;20052;-70
2021/06/22 09:21:01;;;;;;;12.23;7.80;;;26.40;99.90;;;;;;5070060;28;20530;-69
2021/06/22 09:23:32;;;;;;;11.95;7.10;;;26.70;99.90;;;;;;5070674;28;20115;-70
2021/06/22 09:26:08;;;;;;;8.68;6.63;;;26.90;99.90;;;;;;5068522;28;20086;-70
2021/06/22 09:28:35;;;;;;;11.00;7.18;;;26.90;99.90;;;;;;5066045;28;20487;-70
2021/06/22 09:31:09;;;;;;;9.63;6.85;;;26.80;99.90;;;;;;5056994;28;20059;-70
2021/06/22 09:33:48;;;;;;;7.30;5.85;;;26.80;99.90;;;;;;5059131;28;20064;-71
2021/06/22 09:36:27;;;;;;;10.50;6.80;;;26.60;99.90;;;;;;5057414;28;20102;-71
2021/06/22 09:38:57;;;;;;;7.68;5.30;;;26.50;99.90;;;;;;5065719;28;20118;-71
2021/06/22 09:41:32;;;;;;;8.43;5.65;;;26.50;99.90;;;;;;5069266;28;20087;-71
2021/06/22 09:44:06;;;;;;;9.00;5.30;;;26.60;99.90;;;;;;5069999;28;20106;-70
2021/06/22 09:46:45;;;;;;;8.65;5.93;;;26.60;99.90;;;;;;5069487;28;20043;-70
2021/06/22 09:49:23;;;;;;;9.10;6.38;;;26.70;99.90;;;;;;5070474;28;20048;-70
2021/06/22 09:52:10;;;;;;;9.40;6.47;;;26.70;99.90;;;;;;5058423;28;20521;-70
2021/06/22 09:54:49;;;;;;;8.40;5.57;;;26.80;99.90;;;;;;5068803;28;20053;-70
2021/06/22 09:57:21;;;;;;;6.38;5.55;;;27.10;99.90;;;;;;5071495;28;20391;-70
2021/06/22 10:00:08;;;;;;;11.40;6.82;;;27.30;99.90;;;;;;5073019;28;20044;-70
2021/06/22 10:02:53;;;;;;;7.93;6.05;;;27.60;99.90;;;;;;5073990;28;20562;-70
2021/06/22 10:05:21;;;;;;;7.75;5.65;;;27.70;99.90;;;;;;5071874;28;20435;-70
2021/06/22 10:08:01;;;;;;;7.50;5.57;;;28.10;99.90;;;;;;5059343;28;20478;-70
2021/06/22 10:10:36;;;;;;;9.40;5.30;;;27.80;99.90;;;;;;5073620;28;20110;-70
2021/06/22 10:13:04;;;;;;;7.95;6.20;;;27.60;99.90;;;;;;5071526;28;20586;-70
2021/06/22 10:15:31;;;;;;;8.40;6.18;;;27.30;99.90;;;;;;5073055;28;20056;-70
2021/06/22 10:17:59;;;;;;;8.73;5.80;;;26.90;99.90;;;;;;5073932;28;20098;-70
2021/06/22 10:20:27;;;;;;;7.22;5.63;;;26.90;99.90;;;;;;5072354;28;20052;-70
2021/06/22 10:22:54;;;;;;;9.02;5.90;;;27.20;99.90;;;;;;5073895;28;20499;-70
2021/06/22 10:25:21;;;;;;;7.22;6.50;;;27.40;99.90;;;;;;5073586;28;20082;-70
2021/06/22 10:27:50;;;;;;;7.60;6.03;;;27.20;99.90;;;;;;5088894;28;20059;-71
2021/06/22 10:30:20;;;;;;;7.82;5.65;;;26.90;99.90;;;;;;5070062;28;20052;-70
2021/06/22 10:32:47;;;;;;;8.48;5.57;;;26.60;99.90;;;;;;5087816;28;20049;-70
2021/06/22 10:35:16;;;;;;;6.53;5.63;;;26.80;99.90;;;;;;5073382;28;20155;-70
2021/06/22 10:38:00;;;;;;;7.90;5.43;;;26.80;99.90;;;;;;5068657;28;20143;-70
2021/06/22 10:40:31;;;;;;;7.10;5.35;;;27.00;99.90;;;;;;5071239;28;20044;-70
2021/06/22 10:43:01;;;;;;;7.70;4.78;;;27.20;99.90;;;;;;5071956;28;20507;-69
2021/06/22 10:46:07;;;;;;;10.13;5.50;;;27.10;99.90;;;;;;5066126;28;20043;-70
2021/06/22 10:48:46;;;;;;;8.07;5.53;;;26.80;99.90;;;;;;5057628;28;20102;-70
2021/06/22 10:51:39;;;;;;;7.75;5.50;;;26.90;99.90;;;;;;5068042;28;20135;-70
2021/06/22 10:54:08;;;;;;;8.77;5.60;;;26.60;99.90;;;;;;5056858;28;20138;-70
2021/06/22 10:56:41;;;;;;;7.72;5.38;;;26.20;99.90;;;;;;5070638;28;20048;-70
2021/06/22 10:59:12;;;;;;;6.90;4.78;;;26.20;99.90;;;;;;5063903;28;20067;-70
2021/06/22 11:02:01;;;;;;;6.85;4.72;;;26.50;99.90;;;;;;5070540;28;20131;-71
2021/06/22 11:04:29;;;;;;;7.15;4.45;;;26.70;99.90;;;;;;5070532;28;20044;-69
2021/06/22 11:07:06;;;;;;;5.97;4.47;;;26.70;99.90;;;;;;5084073;28;20072;-69
2021/06/22 11:09:34;;;;;;;7.53;4.57;;;26.80;99.90;;;;;;5066265;28;20044;-69
2021/06/22 11:12:23;;;;;;;6.50;4.47;;;26.80;99.90;;;;;;5068997;28;20053;-71
2021/06/22 11:15:01;;;;;;;7.47;5.28;;;26.80;99.90;;;;;;5072047;28;20098;-71
2021/06/22 11:17:43;;;;;;;8.75;7.47;;;26.70;99.90;;;;;;5062796;28;20044;-71
2021/06/22 11:20:15;;;;;;;7.30;4.82;;;26.60;99.90;;;;;;5064821;28;20491;-70
2021/06/22 11:22:59;;;;;;;6.47;4.50;;;26.60;99.90;;;;;;5055889;28;20052;-70
2021/06/22 11:25:45;;;;;;;8.10;5.05;;;26.60;99.90;;;;;;5048569;28;20163;-70
2021/06/22 11:28:13;;;;;;;9.60;5.43;;;26.30;99.90;;;;;;5059228;28;20061;-69
2021/06/22 11:30:50;;;;;;;7.78;4.95;;;26.20;99.90;;;;;;5063897;28;20127;-69
2021/06/22 11:33:44;;;;;;;6.63;5.00;;;26.30;99.90;;;;;;5051119;28;20737;-70
2021/06/22 11:36:20;;;;;;;8.27;5.28;;;26.20;99.90;;;;;;5071579;28;20063;-70
2021/06/22 11:39:09;;;;;;;5.95;4.90;;;26.30;99.90;;;;;;5067271;28;20048;-70
2021/06/22 11:41:37;;;;;;;7.03;4.88;;;26.30;99.90;;;;;;5050789;28;20064;-70
2021/06/22 11:44:07;;;;;;;5.88;5.22;;;26.60;99.90;;;;;;5031553;28;20053;-70
2021/06/22 11:46:35;;;;;;;7.40;5.30;;;26.70;99.90;;;;;;5073898;28;20134;-70
2021/06/22 11:49:04;;;;;;;8.32;4.88;;;26.80;99.90;;;;;;5064533;28;20044;-70
2021/06/22 11:51:47;;;;;;;10.15;5.00;;;26.90;99.90;;;;;;5048072;28;20068;-71
2021/06/22 11:54:46;;;;;;;5.75;4.88;;;27.20;99.90;;;;;;5060760;28;20048;-70
2021/06/22 11:57:21;;;;;;;6.78;5.28;;;27.70;99.90;;;;;;5068558;28;20537;-70
2021/06/22 11:59:49;;;;;;;7.65;4.95;;;28.20;99.90;;;;;;5084982;28;20045;-71
2021/06/22 12:02:16;;;;;;;7.15;4.90;;;28.60;99.90;;;;;;5053894;28;20052;-70
2021/06/22 12:04:45;;;;;;;7.38;4.35;;;28.60;99.90;;;;;;5067214;28;20057;-71
2021/06/22 12:07:13;;;;;;;5.80;3.97;;;28.80;99.90;;;;;;5066214;28;20111;-71
2021/06/22 12:09:41;;;;;;;6.28;4.20;;;29.00;99.90;;;;;;5065220;28;20495;-69
2021/06/22 12:12:10;;;;;;;7.22;4.70;;;29.70;99.90;;;;;;5066431;28;20126;-69
2021/06/22 12:14:51;;;;;;;6.40;3.80;;;30.10;99.90;;;;;;5072077;28;20371;-69
2021/06/22 12:17:20;;;;;;;5.88;3.63;;;29.90;99.90;;;;;;5067236;28;20045;-69
2021/06/22 12:19:53;;;;;;;5.40;3.53;;;29.90;99.90;;;;;;5049238;28;20114;-69
2021/06/22 12:22:21;;;;;;;4.80;3.45;;;30.30;99.90;;;;;;5048306;28;20056;-69
2021/06/22 12:24:48;;;;;;;4.78;3.30;;;30.90;99.90;;;;;;5063441;28;20079;-69
2021/06/22 12:27:16;;;;;;;5.00;2.50;;;31.40;99.90;;;;;;5047702;28;20502;-69
2021/06/22 12:29:43;;;;;;;8.52;3.53;;;32.10;99.90;;;;;;5067009;28;20040;-69
2021/06/22 12:32:11;;;;;;;4.32;3.42;;;32.50;99.90;;;;;;5069748;28;20457;-69
2021/06/22 12:34:41;;;;;;;4.97;3.15;;;32.20;99.90;;;;;;5070060;28;20067;-69
2021/06/22 12:37:20;;;;;;;4.97;3.47;;;31.80;99.90;;;;;;5054996;28;20048;-69
2021/06/22 12:39:49;;;;;;;7.10;4.72;;;31.50;99.90;;;;;;5057444;28;20044;-68
2021/06/22 12:42:20;;;;;;;8.52;3.60;;;31.20;99.90;;;;;;5067830;28;20044;-69
2021/06/22 12:44:48;;;;;;;5.38;3.28;;;31.10;99.90;;;;;;5049748;28;20052;-68
2021/06/22 12:47:16;;;;;;;4.22;3.00;;;31.50;99.90;;;;;;5055965;28;20080;-69
2021/06/22 12:49:44;;;;;;;5.55;3.45;;;31.70;99.90;;;;;;5066213;28;20585;-68
2021/06/22 12:52:13;;;;;;;4.55;2.78;;;31.90;99.90;;;;;;5068323;28;20130;-69
2021/06/22 12:54:43;;;;;;;6.20;3.03;;;32.40;99.90;;;;;;5059645;28;20065;-70
2021/06/22 12:57:21;;;;;;;5.15;2.63;;;32.30;99.90;;;;;;5068740;28;20140;-69